Darwin International Airport

Airport
ICAO code: 
YPDN
IATA Code: 
DRW
Summary
ICAO Region: 
APAC
Territory: 
Location: 
Marrara, Northern Territory
Serving: 
Darwin
Elevation: 
103 ft
Coordinates: 
Aerial View: 
12° 24' 54.231" S, 130° 52' 39.702" E
Metar
Observation
YPDN 061200Z 01003KT 9999 FEW016 BKN450 29/26 Q1006
Station
Darwin Airport
Date/Time
2021-12-06 12:00:00
Wind direction
10°
Wind speed
03 kts
Lowest cloud amount
few clouds
Temperature
29°C
Dew point
26°C
Humidity
83%
QNH
1006 hPa
Weather condition
n/a

Darwin International Airport serves the city of Darwin and the rest of the Australian Northern Territory. It is classified as a joint (civil/military) use aerodrome and is located in the northern Darwin suburb of Marrara,13 km from the city centre, .

Climatology

Tropical Savanna climate (Köppen climate classification Aw).

Runways

Designator Length Width Surface Rops
18/36 1524 30 ASP Yes/Yes
11/29 3354 60 ASP Yes/Yes
Airport map: 
Aerial View: 

Accidents and Serious Incidents at or in the vicinity of YPDN

SKYbrary Partners:

Safety knowledge contributed by: